Ocean City Municipal Airport (Maryland)

Airport
ICAO code: 
KOXB
IATA Code: 
OCE
Summary
ICAO Region: 
NAM
Territory: 
Location: 
Ocean City, Maryland,
Serving: 
Ocean City, Maryland
Elevation: 
11 ft
Coordinates: 
Aerial View: 
38° 18' 37.598" N, 75° 7' 26.299" W
Metar
Observation
KOXB 040653Z AUTO 34005KT 10SM CLR 02/00 A3010 RMK AO2 SLP192 T00170000
Station
Ocean City, Ocean City Municipal Airport
Date/Time
2021-12-04 06:53:00
Wind direction
340°
Wind speed
05 kts
Lowest cloud amount
n/a
Temperature
1.7°C
Dew point
0°C
Humidity
88%
Weather condition
n/a

Description

Barkley Regional Airport is a public use airport located 22 km west of the central business district of Paducah, a city in McCracken County, Kentucky.

Climatology

Humid “subtropical” climate (Köppen climate classification Cfa) - characterized by hot, humid summers and cool winters. Significant amounts of precipitation occur in all seasons in most areas. Winter rainfall (and sometimes snowfall) is associated with large storms that the westerlies steer from west to east. Most summer rainfall occurs during thunderstorms.

Runways

Designator Length Width Surface Rops
2/20 976 23 PEM No/No
14/32 1241 23 PEM No/No
Airport map: 
Aerial View: 

SKYbrary Partners:

Safety knowledge contributed by: